Indianapolis, Indiana
Traffic Map
Current Weather Conditions
Indianapolis, Indiana
Overcast
Overcast
78°
Feels Like: 80°
Wind Chill: 78° Ceiling: 15000
Heat Index: 80° Visibility: 10mi
Dew Point: 66° Wind: 7mph
Humidity: 66% Direction: 210° (SSW)
Pressure: 30.09in Gusts: 0mph
Raw Report DataKIND 291654Z 21006KT 10SM OVC150 26/19 A3009 RMK AO2 SLP183 T02560189
Traffic Incident Summary
Active as of:
Severity:
Category:
InformationThere was an issue retrieving the traffic information for this location. Please try a different location or try again shortly.
Advertisements
Track Severe Weather on mobile